»·PEaware :: N458ND KGEG-KBOI

N458ND :: KGEG-KBOI

FLIGHT INFORMATION

Flight Status: Arrived
Operator: Privately registered:
United States
More flights under this callsign
Pilot: Benjamin S. (30850)
Aircraft: PIPER PA-28R-201 ARROW
(P28R)
More flights by this aircraft type
Origin: KGEG Spokane Intl
United States
Destination: KBOI Boise Air Terminal/Gowen
United States
More flights between these airports :: More routes between these airports
Route: +
File this flight plan on PilotEdge
Remarks:
Altitude:
(Current/Filed)
10,500ft
Speed:
(Current/Filed)
150kts
Departed: 20-Sep-20 08:21 AM
Arrived: 20-Sep-20 09:14 AM
Distance/Time
Traveled:
249nm/0:53
Distance/Time
To Go:
Arrived

Flight Plot

Page will automatically refresh every two minutes.

Flight plan parsing failed; only flown route is shown


Map Options




Map Legend


Flown Route
Filed Route
Departure Airport
Arrival Airport
Navaid (VOR, NDB)
Fix

Horizontal Profiles

Position Reports

Time Latitude Longitude Heading Altitude Ground
Speed
20-Sep-20 08:05 47.620658 -117.522607 1 2358ft 0kts
20-Sep-20 08:06 47.620658 -117.522607 1 2358ft 0kts
20-Sep-20 08:07 47.620658 -117.522607 1 2358ft 0kts
20-Sep-20 08:08 47.620658 -117.522607 1 2358ft 0kts
20-Sep-20 08:09 47.620658 -117.522607 1 2358ft 0kts
20-Sep-20 08:10 47.620658 -117.522607 1 2358ft 0kts
20-Sep-20 08:11 47.620658 -117.522607 1 2358ft 0kts
20-Sep-20 08:12 47.620658 -117.522607 1 2358ft 0kts
20-Sep-20 08:13 47.620658 -117.522607 1 2358ft 0kts
20-Sep-20 08:14 47.620664 -117.522607 1 2358ft 0kts
20-Sep-20 08:15 47.622865 -117.525366 358 2352ft 21kts
20-Sep-20 08:16 47.627279 -117.520721 44 2338ft 33kts
20-Sep-20 08:17 47.629624 -117.516515 185 2323ft 0kts
20-Sep-20 08:18 47.629981 -117.516902 349 2322ft 18kts
20-Sep-20 08:19 47.630731 -117.518990 224 2325ft 20kts
20-Sep-20 08:20 47.617144 -117.539975 225 2929ft 77kts
20-Sep-20 08:21 47.600355 -117.558186 175 3665ft 80kts
20-Sep-20 08:22 47.578581 -117.553785 181 4379ft 81kts
20-Sep-20 08:23 47.556319 -117.554086 183 5125ft 79kts
20-Sep-20 08:24 47.534058 -117.548873 168 5898ft 82kts
20-Sep-20 08:25 47.511965 -117.538430 165 6656ft 84kts
20-Sep-20 08:26 47.489376 -117.537654 192 7384ft 83kts
20-Sep-20 08:27 47.466777 -117.545054 195 8103ft 83kts
20-Sep-20 08:28 47.442605 -117.552072 192 8522ft 110kts
20-Sep-20 08:29 47.400031 -117.567691 197 8514ft 129kts
20-Sep-20 08:30 47.346126 -117.572236 161 8503ft 135kts
20-Sep-20 08:31 47.275496 -117.533684 162 8502ft 135kts
20-Sep-20 08:32 47.218468 -117.503707 163 8501ft 135kts
20-Sep-20 08:33 47.183086 -117.485331 162 8503ft 134kts
20-Sep-20 08:34 47.081056 -117.432374 161 8527ft 137kts
20-Sep-20 08:35 46.950976 -117.365224 162 8545ft 143kts
20-Sep-20 08:36 46.799096 -117.287822 163 8538ft 145kts
20-Sep-20 08:37 46.668017 -117.220911 163 8539ft 145kts
20-Sep-20 08:38 46.625737 -117.199322 163 8539ft 145kts
20-Sep-20 08:39 46.576030 -117.169554 135 8540ft 147kts
20-Sep-20 08:40 46.486716 -117.027649 134 9157ft 138kts
20-Sep-20 08:41 46.357472 -116.923648 171 9520ft 140kts
20-Sep-20 08:42 46.207072 -116.853391 166 9520ft 143kts
20-Sep-20 08:43 46.054716 -116.783192 166 9521ft 143kts
20-Sep-20 08:44 45.903129 -116.713760 167 9549ft 142kts
20-Sep-20 08:45 45.753093 -116.645644 167 9569ft 141kts
20-Sep-20 08:46 45.603048 -116.577719 167 9568ft 141kts
20-Sep-20 08:47 45.453241 -116.510406 166 9579ft 142kts
20-Sep-20 08:48 45.411772 -116.491794 167 9561ft 144kts
20-Sep-20 08:50 45.289049 -116.436879 165 9506ft 145kts
20-Sep-20 08:51 45.135152 -116.368413 165 9515ft 145kts
20-Sep-20 08:52 44.979262 -116.300141 164 9510ft 145kts
20-Sep-20 08:53 44.823319 -116.231448 164 9507ft 145kts
20-Sep-20 08:54 44.668078 -116.191805 208 9501ft 140kts
20-Sep-20 08:55 44.522095 -116.273589 185 9491ft 144kts
20-Sep-20 08:56 44.362224 -116.257141 179 9509ft 144kts
20-Sep-20 08:57 44.201339 -116.244051 179 9488ft 146kts
20-Sep-20 08:58 44.102290 -116.236153 179 9475ft 147kts
20-Sep-20 08:59 44.061530 -116.232887 179 9501ft 147kts
20-Sep-20 09:00 44.020507 -116.229607 179 9501ft 148kts
20-Sep-20 09:01 43.979534 -116.226335 179 9501ft 146kts
20-Sep-20 09:02 43.937757 -116.223040 178 9102ft 153kts
20-Sep-20 09:03 43.894676 -116.219643 177 8585ft 159kts
20-Sep-20 09:04 43.852515 -116.216306 178 7841ft 147kts
20-Sep-20 09:05 43.811608 -116.213134 177 7019ft 148kts
20-Sep-20 09:06 43.769539 -116.204334 176 6164ft 156kts
20-Sep-20 09:06 43.734666 -116.209898 204 5624ft 152kts
20-Sep-20 09:08 43.689163 -116.235271 205 4719ft 150kts
20-Sep-20 09:09 43.655346 -116.258242 207 4295ft 135kts
20-Sep-20 09:09 43.629822 -116.279127 216 4313ft 127kts
20-Sep-20 09:10 43.600615 -116.306873 195 4215ft 129kts
20-Sep-20 09:12 43.582101 -116.271618 115 3480ft 79kts
20-Sep-20 09:12 43.574874 -116.250377 115 3101ft 72kts
20-Sep-20 09:13 43.567399 -116.229741 173 2837ft 18kts
20-Sep-20 09:15 43.566144 -116.230837 278 2835ft 16kts
20-Sep-20 09:15 43.565044 -116.233624 210 2830ft 14kts
20-Sep-20 09:16 43.564003 -116.237710 334 2820ft 10kts
20-Sep-20 09:17 43.564278 -116.238245 358 2819ft 0kts

Navigation Log

Ident Type
Flight plan parsing failed, navigation log unavailable